createdAt,value
2018-10-06T00:00:30.328Z,65.82
2018-10-06T00:01:10.478Z,65.88
2018-10-06T00:01:50.880Z,65.47
2018-10-06T00:02:31.291Z,65.83
2018-10-06T00:03:11.624Z,66.01
2018-10-06T00:03:51.995Z,65.96
2018-10-06T00:04:32.169Z,65.77
2018-10-06T00:05:12.423Z,65.43
2018-10-06T00:05:52.918Z,65.41
2018-10-06T00:06:33.119Z,66.00
2018-10-06T00:07:13.462Z,65.66
2018-10-06T00:07:54.221Z,65.69
2018-10-06T00:08:34.505Z,65.83
2018-10-06T00:09:14.694Z,65.64
2018-10-06T00:09:55.157Z,65.86
2018-10-06T00:10:35.473Z,66.05
2018-10-06T00:11:16.028Z,65.69
2018-10-06T00:11:56.380Z,65.43
2018-10-06T00:12:36.724Z,65.73
2018-10-06T00:13:16.929Z,65.59
2018-10-06T00:13:57.343Z,65.57
2018-10-06T00:14:37.545Z,65.71
2018-10-06T00:15:17.905Z,65.95
2018-10-06T00:15:58.368Z,65.66
2018-10-06T00:16:38.719Z,65.52
2018-10-06T00:17:20.057Z,65.84
2018-10-06T00:18:00.452Z,65.58
2018-10-06T00:18:40.849Z,65.46
2018-10-06T00:19:20.700Z,65.67
2018-10-06T00:20:01.182Z,65.73
2018-10-06T00:20:41.505Z,65.47
2018-10-06T00:21:21.791Z,65.85
2018-10-06T00:22:02.019Z,65.52
2018-10-06T00:22:42.184Z,65.70
2018-10-06T00:23:21.956Z,65.63
2018-10-06T00:24:02.201Z,65.47
2018-10-06T00:24:42.360Z,65.81
2018-10-06T00:25:22.908Z,65.10
2018-10-06T00:26:03.174Z,64.85
2018-10-06T00:26:43.512Z,65.07
2018-10-06T00:27:24.448Z,64.85
2018-10-06T00:28:04.716Z,65.00
2018-10-06T00:28:45.049Z,65.04
2018-10-06T00:29:25.407Z,65.15
2018-10-06T00:30:06.199Z,65.09
2018-10-06T00:30:46.668Z,65.52
2018-10-06T00:31:26.998Z,65.01
2018-10-06T00:32:07.316Z,64.60
2018-10-06T00:32:47.600Z,64.95
2018-10-06T00:33:27.181Z,65.12
2018-10-06T00:34:07.867Z,65.32
2018-10-06T00:34:48.966Z,65.45
2018-10-06T00:35:29.198Z,65.09
2018-10-06T00:36:09.417Z,65.21
2018-10-06T00:36:49.701Z,65.01
2018-10-06T00:37:30.072Z,65.11
2018-10-06T00:38:10.299Z,65.04
2018-10-06T00:38:50.615Z,65.40
2018-10-06T00:39:30.835Z,65.13
2018-10-06T00:40:11.144Z,64.90
2018-10-06T00:40:51.447Z,64.92
2018-10-06T00:41:31.802Z,65.09
2018-10-06T00:42:12.141Z,65.11
2018-10-06T00:42:51.931Z,65.19
2018-10-06T00:43:32.394Z,65.17
2018-10-06T00:44:12.646Z,65.34
2018-10-06T00:44:52.251Z,65.11
2018-10-06T00:45:32.577Z,65.14
2018-10-06T00:46:13.030Z,65.07
2018-10-06T00:46:53.409Z,65.05
2018-10-06T00:47:33.891Z,64.79
2018-10-06T00:48:14.139Z,64.99
2018-10-06T00:48:54.494Z,65.05
2018-10-06T00:49:34.681Z,65.03
2018-10-06T00:50:14.913Z,65.44
2018-10-06T00:50:54.565Z,64.89
2018-10-06T00:51:34.858Z,64.68
2018-10-06T00:52:15.107Z,64.86
2018-10-06T00:52:55.273Z,64.97
2018-10-06T00:53:35.604Z,65.46
2018-10-06T00:54:15.932Z,65.17
2018-10-06T00:54:56.225Z,65.65
2018-10-06T00:55:36.506Z,64.81
2018-10-06T00:56:16.810Z,65.33
2018-10-06T00:56:57.136Z,64.93
2018-10-06T00:57:37.367Z,65.17
2018-10-06T00:58:17.651Z,64.89
2018-10-06T00:58:57.801Z,64.96
2018-10-06T00:59:38.084Z,65.09
2018-10-06T01:00:18.908Z,64.64
2018-10-06T01:00:59.116Z,64.97
2018-10-06T01:01:39.309Z,65.26
2018-10-06T01:02:19.521Z,64.96
2018-10-06T01:02:59.733Z,65.44
2018-10-06T01:03:39.944Z,64.66
2018-10-06T01:04:20.165Z,65.47
2018-10-06T01:05:00.660Z,65.09
2018-10-06T01:05:40.834Z,64.85
2018-10-06T01:06:21.126Z,65.17
2018-10-06T01:07:00.803Z,65.64
2018-10-06T01:07:40.660Z,65.64
2018-10-06T01:08:20.506Z,65.03
2018-10-06T01:09:00.183Z,64.97
2018-10-06T01:09:40.505Z,65.08
2018-10-06T01:10:20.625Z,66.03
2018-10-06T01:11:00.300Z,65.92
2018-10-06T01:11:40.576Z,65.74
2018-10-06T01:12:23.404Z,65.62
2018-10-06T01:13:03.172Z,65.54
2018-10-06T01:13:43.482Z,65.52
2018-10-06T01:14:23.292Z,65.06
2018-10-06T01:15:03.699Z,65.02
2018-10-06T01:15:43.905Z,65.03
2018-10-06T01:16:24.280Z,64.99
2018-10-06T01:17:04.420Z,65.27
2018-10-06T01:17:44.663Z,65.40
2018-10-06T01:18:25.061Z,65.55
2018-10-06T01:19:05.260Z,65.37
2018-10-06T01:19:45.623Z,65.83
2018-10-06T01:20:25.893Z,65.39
2018-10-06T01:21:06.478Z,65.42
2018-10-06T01:21:46.264Z,65.15
2018-10-06T01:22:26.433Z,65.46
2018-10-06T01:23:06.962Z,65.58
2018-10-06T01:23:46.656Z,65.20
2018-10-06T01:24:27.154Z,65.41
2018-10-06T01:25:07.778Z,65.55
2018-10-06T01:25:48.047Z,65.35
2018-10-06T01:26:28.279Z,65.32
2018-10-06T01:27:08.722Z,65.83
2018-10-06T01:27:49.379Z,65.77
2018-10-06T01:28:29.825Z,65.63
2018-10-06T01:29:10.040Z,65.58
2018-10-06T01:29:50.427Z,65.61
2018-10-06T01:30:30.653Z,65.73
2018-10-06T01:31:10.980Z,65.59
2018-10-06T01:31:51.569Z,65.80
2018-10-06T01:32:31.871Z,66.10
2018-10-06T01:33:12.144Z,65.64
2018-10-06T01:33:52.572Z,65.79
2018-10-06T01:34:32.289Z,65.67
2018-10-06T01:35:12.599Z,65.59
2018-10-06T01:35:53.218Z,66.12
2018-10-06T01:36:32.941Z,65.66
2018-10-06T01:37:13.270Z,66.12
2018-10-06T01:37:53.624Z,65.99
2018-10-06T01:38:33.957Z,66.17
2018-10-06T01:39:13.776Z,66.05
2018-10-06T01:39:53.556Z,65.96
2018-10-06T01:40:33.300Z,65.67
2018-10-06T01:41:13.568Z,65.77
2018-10-06T01:41:54.533Z,65.43
2018-10-06T01:42:34.848Z,65.29
2018-10-06T01:43:15.297Z,65.56
2018-10-06T01:43:55.529Z,65.32
2018-10-06T01:44:35.639Z,65.61
2018-10-06T01:45:15.748Z,65.47
2018-10-06T01:45:55.406Z,66.05
2018-10-06T01:46:35.981Z,66.13
2018-10-06T01:47:16.485Z,65.55
2018-10-06T01:47:56.898Z,65.25
2018-10-06T01:48:37.401Z,65.45
2018-10-06T01:49:17.580Z,65.42
2018-10-06T01:49:57.983Z,65.58
2018-10-06T01:50:38.524Z,65.82
2018-10-06T01:51:18.813Z,65.76
2018-10-06T01:51:58.542Z,65.68
2018-10-06T01:52:38.807Z,65.69
2018-10-06T01:53:18.614Z,65.98
2018-10-06T01:53:58.177Z,65.84
2018-10-06T01:54:37.788Z,66.10
2018-10-06T01:55:17.983Z,65.83
2018-10-06T01:56:37.625Z,66.19
2018-10-06T01:57:17.326Z,66.19
2018-10-06T01:57:57.593Z,66.13
2018-10-06T01:58:37.849Z,66.39
2018-10-06T01:59:18.338Z,65.97
2018-10-06T01:59:57.925Z,65.91
2018-10-06T02:00:38.065Z,66.11
2018-10-06T02:01:17.745Z,66.15
2018-10-06T02:01:57.436Z,66.20
2018-10-06T02:02:37.035Z,66.11
2018-10-06T02:03:17.308Z,66.09
2018-10-06T02:03:57.624Z,66.16
2018-10-06T02:04:37.236Z,66.31
2018-10-06T02:05:17.621Z,66.35
2018-10-06T02:05:57.921Z,65.99
2018-10-06T02:06:38.670Z,65.94
2018-10-06T02:07:18.932Z,66.46
2018-10-06T02:07:59.186Z,65.86
2018-10-06T02:08:38.851Z,66.05
2018-10-06T02:09:19.377Z,66.12
2018-10-06T02:09:59.631Z,65.89
2018-10-06T02:10:40.022Z,66.40
2018-10-06T02:11:20.224Z,65.70
2018-10-06T02:11:59.996Z,66.31
2018-10-06T02:12:40.285Z,66.53
2018-10-06T02:13:20.705Z,66.31
2018-10-06T02:14:01.134Z,66.42
2018-10-06T02:14:41.278Z,65.78
2018-10-06T02:15:21.826Z,66.42
2018-10-06T02:16:02.276Z,66.23
2018-10-06T02:16:42.551Z,66.30
2018-10-06T02:17:22.981Z,66.17
2018-10-06T02:18:02.696Z,66.35
2018-10-06T02:18:43.051Z,66.46
2018-10-06T02:19:22.787Z,66.65
2018-10-06T02:20:02.714Z,66.67
2018-10-06T02:20:42.389Z,66.90
2018-10-06T02:21:22.804Z,66.81
2018-10-06T02:22:03.449Z,66.96
2018-10-06T02:22:43.590Z,66.78
2018-10-06T02:23:24.011Z,66.54
2018-10-06T02:24:04.332Z,66.77
2018-10-06T02:24:43.876Z,66.54
2018-10-06T02:25:23.841Z,66.42
2018-10-06T02:26:03.445Z,66.60
2018-10-06T02:26:43.184Z,66.55
2018-10-06T02:27:22.953Z,66.73
2018-10-06T02:28:02.631Z,66.71
2018-10-06T02:28:42.431Z,66.53
2018-10-06T02:29:22.221Z,66.43
2018-10-06T02:30:02.001Z,66.48
2018-10-06T02:30:41.931Z,66.46
2018-10-06T02:31:21.514Z,66.43
2018-10-06T02:32:01.325Z,66.22
2018-10-06T02:32:41.128Z,66.31
2018-10-06T02:33:20.969Z,66.24
2018-10-06T02:34:00.776Z,66.64
2018-10-06T02:34:40.378Z,66.42
2018-10-06T02:35:20.072Z,66.16
2018-10-06T02:35:59.992Z,66.51
2018-10-06T02:36:39.612Z,66.37
2018-10-06T02:37:19.570Z,66.49
2018-10-06T02:37:59.272Z,66.27
2018-10-06T02:38:38.972Z,66.38
2018-10-06T02:39:18.567Z,66.26
2018-10-06T02:39:58.337Z,66.27
2018-10-06T02:40:38.004Z,66.28
2018-10-06T02:41:17.760Z,66.36
2018-10-06T02:41:57.603Z,66.44
2018-10-06T02:42:37.305Z,66.56
2018-10-06T02:43:16.861Z,66.38
2018-10-06T02:43:56.461Z,66.76
2018-10-06T02:44:36.256Z,66.78
2018-10-06T02:45:15.943Z,66.60
2018-10-06T02:45:55.602Z,66.81
2018-10-06T02:46:35.095Z,66.83
2018-10-06T02:47:14.698Z,66.75
2018-10-06T02:47:54.803Z,67.10
2018-10-06T02:48:34.421Z,67.08
2018-10-06T02:49:14.147Z,67.11
2018-10-06T02:49:54.567Z,67.10
2018-10-06T02:50:34.284Z,67.20
2018-10-06T02:51:13.978Z,67.08
2018-10-06T02:51:53.838Z,67.22
2018-10-06T02:52:33.574Z,67.36
2018-10-06T02:53:13.320Z,67.30
2018-10-06T02:53:53.280Z,67.25
2018-10-06T02:54:32.900Z,67.30
2018-10-06T02:55:12.586Z,67.13
2018-10-06T02:55:53.129Z,67.20
2018-10-06T02:56:33.322Z,67.23
2018-10-06T02:57:13.812Z,67.62
2018-10-06T02:57:53.731Z,67.34
2018-10-06T02:58:33.946Z,67.59
2018-10-06T02:59:14.171Z,67.65
2018-10-06T02:59:54.112Z,67.51
2018-10-06T03:00:33.663Z,67.39
2018-10-06T03:01:13.451Z,67.29
2018-10-06T03:01:53.540Z,67.17
2018-10-06T03:02:33.669Z,67.43
2018-10-06T03:03:14.059Z,67.55
2018-10-06T03:03:53.915Z,67.42
2018-10-06T03:04:34.138Z,66.86
2018-10-06T03:05:14.477Z,67.23
2018-10-06T03:05:54.183Z,67.36
2018-10-06T03:06:34.527Z,67.36
2018-10-06T03:07:14.087Z,67.39
2018-10-06T03:07:54.084Z,67.29
2018-10-06T03:08:33.779Z,67.27
2018-10-06T03:09:13.344Z,67.24
2018-10-06T03:09:53.350Z,67.38
2018-10-06T03:10:33.628Z,67.39
2018-10-06T03:11:13.815Z,67.12
2018-10-06T03:11:53.547Z,67.30
2018-10-06T03:12:33.205Z,67.01
2018-10-06T03:13:12.733Z,67.13
2018-10-06T03:13:52.714Z,67.04
2018-10-06T03:14:32.443Z,66.97
2018-10-06T03:15:12.812Z,67.04
2018-10-06T03:15:52.525Z,67.46
2018-10-06T03:16:32.137Z,67.58
2018-10-06T03:17:11.861Z,67.70
2018-10-06T03:17:52.166Z,68.02
2018-10-06T03:18:31.736Z,67.95
2018-10-06T03:19:11.457Z,67.96
2018-10-06T03:19:51.049Z,67.71
2018-10-06T03:20:30.782Z,67.67
2018-10-06T03:21:10.538Z,68.21
2018-10-06T03:21:50.384Z,68.55
2018-10-06T03:22:30.061Z,68.28
2018-10-06T03:23:10.111Z,68.11
2018-10-06T03:23:50.654Z,68.56
2018-10-06T03:24:30.319Z,68.05
2018-10-06T03:25:09.898Z,67.83
2018-10-06T03:25:49.571Z,68.39
2018-10-06T03:26:29.616Z,68.34
2018-10-06T03:27:09.274Z,68.39
2018-10-06T03:27:49.639Z,68.50
2018-10-06T03:28:29.404Z,68.40
2018-10-06T03:29:08.995Z,68.40
2018-10-06T03:29:48.871Z,68.35
2018-10-06T03:30:28.382Z,68.31
2018-10-06T03:31:07.921Z,68.33
2018-10-06T03:31:47.614Z,68.10
2018-10-06T03:32:27.316Z,68.15
2018-10-06T03:33:06.862Z,68.29
2018-10-06T03:33:46.423Z,68.63
2018-10-06T03:34:26.149Z,68.55
2018-10-06T03:35:06.285Z,68.56
2018-10-06T03:35:45.880Z,68.58
2018-10-06T03:36:25.606Z,68.51
2018-10-06T03:37:05.377Z,68.61
2018-10-06T03:37:45.025Z,69.02
2018-10-06T03:38:24.734Z,68.92
2018-10-06T03:39:06.929Z,68.85
2018-10-06T03:39:46.705Z,68.89
2018-10-06T03:40:26.808Z,69.11
2018-10-06T03:41:06.421Z,68.76
2018-10-06T03:41:46.035Z,68.79
2018-10-06T03:42:25.802Z,68.78
2018-10-06T03:43:05.272Z,68.70
2018-10-06T03:43:44.968Z,68.67
2018-10-06T03:44:24.725Z,69.05
2018-10-06T03:45:04.350Z,69.25
2018-10-06T03:45:43.965Z,69.11
2018-10-06T03:46:23.719Z,69.20
2018-10-06T03:47:03.692Z,69.17
2018-10-06T03:47:43.335Z,69.32
2018-10-06T03:48:23.018Z,69.29
2018-10-06T03:49:02.750Z,69.28
2018-10-06T03:49:42.260Z,69.14
2018-10-06T03:50:21.770Z,69.27
2018-10-06T03:51:01.411Z,69.28
2018-10-06T03:51:40.907Z,69.19
2018-10-06T03:52:20.584Z,69.06
2018-10-06T03:53:00.169Z,69.38
2018-10-06T03:53:39.669Z,68.93
2018-10-06T03:54:19.296Z,69.24
2018-10-06T03:54:58.821Z,69.01
2018-10-06T03:55:38.379Z,69.23
2018-10-06T03:56:18.114Z,69.24
2018-10-06T03:56:57.720Z,69.56
2018-10-06T03:57:37.333Z,69.66
2018-10-06T03:58:17.119Z,69.54
2018-10-06T03:58:57.078Z,69.47
2018-10-06T03:59:36.680Z,69.61
2018-10-06T04:00:16.340Z,69.23
2018-10-06T04:00:55.997Z,69.38
2018-10-06T04:01:35.703Z,69.72
2018-10-06T04:02:15.424Z,69.81
2018-10-06T04:02:55.008Z,69.94
2018-10-06T04:03:34.812Z,69.76
2018-10-06T04:04:14.543Z,69.75
2018-10-06T04:04:54.340Z,69.67
2018-10-06T04:05:34.073Z,69.40
2018-10-06T04:06:13.636Z,69.39
2018-10-06T04:06:53.340Z,69.66
2018-10-06T04:07:33.432Z,69.32
2018-10-06T04:08:13.348Z,69.62
2018-10-06T04:08:53.089Z,69.84
2018-10-06T04:09:32.628Z,69.45
2018-10-06T04:10:12.433Z,69.65
2018-10-06T04:10:52.377Z,69.61
2018-10-06T04:11:32.190Z,69.67
2018-10-06T04:12:11.817Z,69.36
2018-10-06T04:12:51.736Z,69.67
2018-10-06T04:13:31.387Z,69.07
2018-10-06T04:14:11.075Z,69.22
2018-10-06T04:14:50.857Z,69.49
2018-10-06T04:15:30.931Z,69.63
2018-10-06T04:16:10.633Z,69.51
2018-10-06T04:16:50.380Z,69.93
2018-10-06T04:17:30.066Z,69.74
2018-10-06T04:18:09.798Z,69.91
2018-10-06T04:18:49.615Z,69.90
2018-10-06T04:19:29.280Z,69.83
2018-10-06T04:20:08.940Z,69.91
2018-10-06T04:20:48.771Z,69.95
2018-10-06T04:21:32.892Z,69.75
2018-10-06T04:22:12.395Z,69.65
2018-10-06T04:22:52.018Z,69.68
2018-10-06T04:23:31.748Z,69.77
2018-10-06T04:24:11.376Z,69.63
2018-10-06T04:24:51.186Z,69.39
2018-10-06T04:25:31.045Z,69.01
2018-10-06T04:26:10.744Z,69.03
2018-10-06T04:26:50.571Z,69.00
2018-10-06T04:27:30.316Z,69.14
2018-10-06T04:28:10.151Z,68.94
2018-10-06T04:28:49.988Z,69.24
2018-10-06T04:29:29.760Z,69.10
2018-10-06T04:30:10.072Z,69.21
2018-10-06T04:30:49.804Z,68.98
2018-10-06T04:31:29.320Z,68.98
2018-10-06T04:32:09.122Z,68.96
2018-10-06T04:32:48.934Z,69.10
2018-10-06T04:33:28.604Z,69.24
2018-10-06T04:34:09.077Z,69.06
2018-10-06T04:34:49.491Z,69.01
2018-10-06T04:35:29.136Z,68.87
2018-10-06T04:36:08.820Z,68.78
2018-10-06T04:36:48.416Z,68.51
2018-10-06T04:37:28.083Z,68.87
2018-10-06T04:38:07.717Z,68.75
2018-10-06T04:38:47.464Z,68.61
2018-10-06T04:39:27.184Z,68.58
2018-10-06T04:40:06.918Z,68.76
2018-10-06T04:40:46.586Z,68.56
2018-10-06T04:41:26.209Z,68.63
2018-10-06T04:42:06.309Z,69.03
2018-10-06T04:42:46.045Z,69.16
2018-10-06T04:43:26.216Z,68.92
2018-10-06T04:44:05.853Z,68.54
2018-10-06T04:44:45.537Z,68.67
2018-10-06T04:45:25.392Z,68.67
2018-10-06T04:46:05.260Z,69.00
2018-10-06T04:46:44.872Z,68.86
2018-10-06T04:47:24.572Z,68.79
2018-10-06T04:48:04.208Z,69.35
2018-10-06T04:48:43.901Z,68.86
2018-10-06T04:49:23.672Z,69.22
2018-10-06T04:50:03.616Z,69.13
2018-10-06T04:50:43.369Z,69.47
2018-10-06T04:51:22.940Z,69.38
2018-10-06T04:52:02.710Z,69.29
2018-10-06T04:52:42.572Z,68.88
2018-10-06T04:53:28.996Z,69.08
2018-10-06T04:54:09.218Z,69.16
2018-10-06T04:54:48.965Z,69.09
2018-10-06T04:55:28.715Z,69.33
2018-10-06T04:56:08.338Z,68.93
2018-10-06T04:56:47.947Z,69.19
2018-10-06T04:57:28.124Z,68.94
2018-10-06T04:58:07.893Z,69.20
2018-10-06T04:58:47.513Z,68.68
2018-10-06T04:59:27.187Z,68.89
2018-10-06T05:00:06.786Z,68.94
2018-10-06T05:00:46.519Z,68.83
2018-10-06T05:01:26.244Z,68.78
2018-10-06T05:02:05.964Z,68.66
2018-10-06T05:02:45.534Z,68.86
2018-10-06T05:03:25.453Z,69.06
2018-10-06T05:04:05.336Z,68.86
2018-10-06T05:04:45.044Z,69.11
2018-10-06T05:05:24.819Z,69.12
2018-10-06T05:06:04.796Z,68.87
2018-10-06T05:06:44.505Z,68.72
2018-10-06T05:07:24.159Z,68.69
2018-10-06T05:08:03.948Z,68.69
2018-10-06T05:08:43.614Z,68.87
2018-10-06T05:09:23.681Z,68.90
2018-10-06T05:10:03.316Z,68.89
2018-10-06T05:10:43.064Z,68.98
2018-10-06T05:11:22.820Z,69.12
2018-10-06T05:12:02.617Z,69.25
2018-10-06T05:12:42.371Z,69.02
2018-10-06T05:13:22.052Z,69.07
2018-10-06T05:14:01.813Z,69.09
2018-10-06T05:14:41.539Z,69.12
2018-10-06T05:15:21.340Z,69.45
2018-10-06T05:16:01.060Z,69.23
2018-10-06T05:16:40.804Z,69.32
2018-10-06T05:17:20.586Z,69.06
2018-10-06T05:18:00.257Z,69.16
2018-10-06T05:18:39.856Z,68.87
2018-10-06T05:19:19.606Z,68.95
2018-10-06T05:19:59.279Z,69.12
2018-10-06T05:20:39.013Z,69.20
2018-10-06T05:21:19.051Z,69.24
2018-10-06T05:21:58.828Z,69.13
2018-10-06T05:22:38.593Z,69.06
2018-10-06T05:23:18.276Z,68.98
2018-10-06T05:23:58.102Z,69.00
2018-10-06T05:24:37.952Z,69.30
2018-10-06T05:25:17.704Z,69.38
2018-10-06T05:25:57.317Z,69.41
2018-10-06T05:26:36.946Z,69.49
2018-10-06T05:27:16.879Z,69.53
2018-10-06T05:27:56.414Z,69.24
2018-10-06T05:28:35.902Z,69.13
2018-10-06T05:29:15.545Z,69.34
2018-10-06T05:29:55.203Z,69.40
2018-10-06T05:30:34.684Z,69.48
2018-10-06T05:31:14.340Z,69.56
2018-10-06T05:31:54.012Z,69.53
2018-10-06T05:32:34.178Z,69.44
2018-10-06T05:33:13.747Z,69.61
2018-10-06T05:33:53.384Z,69.49
2018-10-06T05:34:33.153Z,69.33
2018-10-06T05:35:12.887Z,69.40
2018-10-06T05:35:52.496Z,69.10
2018-10-06T05:36:32.037Z,69.32
2018-10-06T05:37:11.730Z,69.32
2018-10-06T05:37:51.648Z,69.19
2018-10-06T05:38:31.120Z,69.14
2018-10-06T05:39:11.568Z,69.14
2018-10-06T05:39:51.221Z,69.57
2018-10-06T05:40:30.913Z,69.40
2018-10-06T05:41:10.517Z,69.37
2018-10-06T05:41:50.235Z,69.15
2018-10-06T05:42:30.066Z,69.38
2018-10-06T05:43:09.768Z,69.42
2018-10-06T05:43:49.433Z,69.24
2018-10-06T05:44:29.152Z,69.17
2018-10-06T05:45:09.040Z,69.21
2018-10-06T05:45:48.858Z,69.00
2018-10-06T05:46:28.470Z,69.13
2018-10-06T05:47:08.333Z,69.24
2018-10-06T05:47:48.219Z,69.11
2018-10-06T05:48:28.017Z,69.12
2018-10-06T05:49:07.926Z,69.05
2018-10-06T05:49:47.725Z,69.11
2018-10-06T05:50:27.591Z,69.20
2018-10-06T05:51:08.236Z,68.92
2018-10-06T05:51:48.017Z,68.99
2018-10-06T05:52:27.783Z,68.93
2018-10-06T05:53:07.543Z,69.06
2018-10-06T05:53:47.360Z,68.89
2018-10-06T05:54:27.092Z,68.73
2018-10-06T05:55:06.785Z,68.69
2018-10-06T05:55:46.578Z,68.92
2018-10-06T05:56:26.216Z,68.63
2018-10-06T05:57:05.812Z,68.72
2018-10-06T05:57:45.400Z,68.84
2018-10-06T05:58:24.996Z,68.91
2018-10-06T05:59:04.738Z,68.96
2018-10-06T05:59:44.755Z,68.88
2018-10-06T06:00:25.076Z,68.81
2018-10-06T06:01:04.822Z,68.79
2018-10-06T06:01:44.536Z,68.59
2018-10-06T06:02:24.713Z,68.55
2018-10-06T06:03:04.404Z,68.55
2018-10-06T06:03:44.195Z,68.57
2018-10-06T06:04:24.212Z,68.40
2018-10-06T06:05:04.094Z,68.35
2018-10-06T06:05:43.737Z,67.93
2018-10-06T06:06:23.605Z,67.91
2018-10-06T06:07:03.620Z,67.88
2018-10-06T06:07:44.914Z,67.73
2018-10-06T06:08:24.617Z,67.80
2018-10-06T06:09:05.033Z,67.77
2018-10-06T06:09:44.632Z,67.72
2018-10-06T06:10:24.581Z,67.90
2018-10-06T06:11:04.277Z,67.64
2018-10-06T06:11:44.075Z,68.03
2018-10-06T06:12:23.878Z,67.89
2018-10-06T06:13:03.702Z,67.86
2018-10-06T06:13:43.342Z,67.88
2018-10-06T06:14:23.054Z,67.93
2018-10-06T06:15:02.848Z,67.82
2018-10-06T06:15:42.509Z,67.73
2018-10-06T06:16:22.450Z,67.59
2018-10-06T06:17:02.199Z,67.75
2018-10-06T06:17:42.102Z,67.63
2018-10-06T06:18:21.894Z,67.58
2018-10-06T06:19:01.628Z,67.51
2018-10-06T06:19:41.276Z,67.60
2018-10-06T06:20:20.961Z,67.44
2018-10-06T06:21:00.579Z,67.46
2018-10-06T06:21:40.265Z,67.37
2018-10-06T06:22:20.031Z,67.21
2018-10-06T06:22:59.695Z,67.08
2018-10-06T06:23:39.372Z,67.23
2018-10-06T06:24:19.087Z,67.27
2018-10-06T06:24:58.814Z,66.96
2018-10-06T06:25:38.596Z,67.08
2018-10-06T06:26:18.330Z,66.82
2018-10-06T06:26:57.977Z,66.91
2018-10-06T06:27:38.044Z,66.99
2018-10-06T06:28:17.724Z,66.94
2018-10-06T06:28:57.543Z,66.89
2018-10-06T06:29:37.164Z,66.90
2018-10-06T06:30:16.984Z,66.62
2018-10-06T06:30:56.677Z,66.55
2018-10-06T06:31:36.361Z,66.37
2018-10-06T06:32:16.080Z,66.64
2018-10-06T06:32:56.076Z,66.31
2018-10-06T06:33:35.799Z,66.35
2018-10-06T06:34:15.778Z,66.00
2018-10-06T06:34:55.556Z,65.84
2018-10-06T06:35:35.276Z,65.95
2018-10-06T06:36:15.250Z,65.76
2018-10-06T06:36:54.862Z,65.90
2018-10-06T06:37:34.472Z,66.16
2018-10-06T06:38:14.347Z,66.34
2018-10-06T06:38:54.361Z,66.25
2018-10-06T06:39:34.206Z,66.22
2018-10-06T06:40:13.894Z,66.45
2018-10-06T06:40:53.749Z,66.17
2018-10-06T06:41:33.355Z,66.10
2018-10-06T06:42:13.070Z,65.79
2018-10-06T06:42:52.977Z,65.67
2018-10-06T06:43:32.794Z,65.67
2018-10-06T06:44:12.744Z,65.65
2018-10-06T06:44:53.208Z,65.65
2018-10-06T06:45:33.483Z,65.53
2018-10-06T06:46:13.414Z,65.41
2018-10-06T06:46:53.756Z,65.56
2018-10-06T06:47:34.056Z,65.26
2018-10-06T06:48:14.397Z,65.27
2018-10-06T06:48:54.778Z,65.60
2018-10-06T06:49:34.717Z,65.45
2018-10-06T06:50:15.063Z,65.25
2018-10-06T06:50:54.853Z,65.68
2018-10-06T06:51:35.395Z,65.96
2018-10-06T06:52:15.715Z,65.70
2018-10-06T06:52:55.400Z,65.94
2018-10-06T06:53:35.757Z,66.33
2018-10-06T06:54:15.935Z,66.32
2018-10-06T06:54:56.534Z,66.07
2018-10-06T06:55:37.164Z,66.01
2018-10-06T06:56:17.405Z,65.39
2018-10-06T06:56:56.985Z,65.70
2018-10-06T06:57:37.374Z,65.79
2018-10-06T06:58:17.640Z,65.32
2018-10-06T06:58:58.026Z,65.80
2018-10-06T06:59:38.260Z,65.64
2018-10-06T07:00:18.849Z,65.52
2018-10-06T07:00:59.082Z,65.30
2018-10-06T07:01:39.272Z,65.09
2018-10-06T07:02:19.800Z,65.23
2018-10-06T07:03:00.047Z,64.59
2018-10-06T07:03:40.240Z,64.79
2018-10-06T07:04:20.446Z,64.62
2018-10-06T07:05:00.815Z,64.43
2018-10-06T07:05:41.148Z,64.57
2018-10-06T07:06:21.804Z,64.76
2018-10-06T07:07:02.029Z,64.81
2018-10-06T07:07:42.239Z,64.44
2018-10-06T07:08:22.598Z,65.10
2018-10-06T07:09:03.009Z,64.92
2018-10-06T07:09:43.265Z,64.63
2018-10-06T07:10:24.206Z,65.24
2018-10-06T07:11:04.345Z,65.11
2018-10-06T07:11:44.546Z,64.89
2018-10-06T07:12:24.673Z,65.13
2018-10-06T07:13:05.018Z,64.88
2018-10-06T07:13:45.268Z,64.42
2018-10-06T07:14:25.578Z,65.18
2018-10-06T07:15:06.280Z,64.69
2018-10-06T07:15:46.567Z,64.81
2018-10-06T07:16:26.804Z,64.62
2018-10-06T07:17:07.116Z,64.92
2018-10-06T07:17:47.477Z,64.93
2018-10-06T07:18:27.697Z,64.84
2018-10-06T07:19:08.222Z,64.91
2018-10-06T07:19:48.496Z,64.43
2018-10-06T07:20:28.575Z,64.87
2018-10-06T07:21:08.810Z,64.46
2018-10-06T07:21:49.096Z,64.38
2018-10-06T07:22:28.688Z,64.77
2018-10-06T07:23:08.927Z,64.52
2018-10-06T07:23:49.307Z,64.56
2018-10-06T07:24:29.389Z,64.96
2018-10-06T07:25:09.641Z,64.76
2018-10-06T07:25:49.830Z,65.04
2018-10-06T07:26:30.105Z,64.99
2018-10-06T07:27:10.278Z,64.82
2018-10-06T07:27:50.536Z,64.85
2018-10-06T07:28:30.768Z,64.77
2018-10-06T07:29:11.154Z,64.92
2018-10-06T07:29:51.439Z,65.18
2018-10-06T07:30:31.668Z,65.03
2018-10-06T07:31:11.996Z,64.50
2018-10-06T07:31:52.820Z,64.64
2018-10-06T07:32:32.888Z,64.53
2018-10-06T07:33:13.187Z,65.00
2018-10-06T07:33:53.685Z,65.06
2018-10-06T07:34:33.816Z,65.11
2018-10-06T07:35:14.094Z,65.40
2018-10-06T07:35:54.317Z,65.64
2018-10-06T07:36:34.834Z,64.88
2018-10-06T07:37:14.979Z,64.90
2018-10-06T07:37:55.289Z,64.81
2018-10-06T07:38:35.957Z,64.42
2018-10-06T07:39:16.344Z,64.64
2018-10-06T07:39:56.548Z,64.80
2018-10-06T07:40:36.952Z,64.60
2018-10-06T07:41:17.277Z,64.47
2018-10-06T07:41:57.512Z,64.87
2018-10-06T07:42:37.852Z,64.95
2018-10-06T07:43:18.238Z,65.59
2018-10-06T07:43:58.568Z,65.09
2018-10-06T07:44:38.270Z,65.31
2018-10-06T07:45:18.765Z,65.12
2018-10-06T07:45:59.092Z,65.14
2018-10-06T07:46:39.295Z,65.16
2018-10-06T07:47:19.461Z,64.94
2018-10-06T07:47:59.832Z,64.70
2018-10-06T07:48:39.960Z,64.96
2018-10-06T07:49:20.145Z,64.71
2018-10-06T07:50:00.424Z,64.84
2018-10-06T07:50:40.733Z,64.90
2018-10-06T07:51:21.525Z,64.57
2018-10-06T07:52:02.170Z,64.24
2018-10-06T07:52:42.277Z,64.23
2018-10-06T07:53:22.647Z,64.81
2018-10-06T07:54:03.015Z,64.98
2018-10-06T07:54:43.477Z,64.49
2018-10-06T07:55:23.804Z,64.77
2018-10-06T07:56:04.116Z,64.56
2018-10-06T07:56:44.524Z,64.59
2018-10-06T07:57:31.432Z,63.82
2018-10-06T07:58:12.168Z,64.09
2018-10-06T07:58:52.559Z,64.21
2018-10-06T07:59:33.041Z,64.50
2018-10-06T08:00:13.443Z,64.40
2018-10-06T08:00:53.823Z,64.10
2018-10-06T08:01:34.130Z,63.89
2018-10-06T08:02:14.379Z,64.06
2018-10-06T08:02:54.712Z,63.75
2018-10-06T08:03:35.025Z,63.72
2018-10-06T08:04:15.497Z,63.74
2018-10-06T08:04:56.022Z,63.70
2018-10-06T08:05:36.385Z,63.80
2018-10-06T08:06:16.800Z,63.67
2018-10-06T08:06:57.756Z,63.55
2018-10-06T08:07:38.204Z,63.42
2018-10-06T08:08:18.678Z,63.25
2018-10-06T08:08:59.089Z,63.30
2018-10-06T08:09:39.385Z,63.03
2018-10-06T08:10:19.940Z,63.44
2018-10-06T08:11:00.097Z,63.07
2018-10-06T08:11:40.305Z,63.18
2018-10-06T08:12:20.693Z,63.79
2018-10-06T08:13:01.018Z,63.61
2018-10-06T08:13:41.409Z,63.66
2018-10-06T08:14:21.843Z,63.69
2018-10-06T08:15:02.127Z,63.66
2018-10-06T08:15:42.536Z,63.40
2018-10-06T08:16:23.028Z,63.24
2018-10-06T08:17:03.363Z,62.93
2018-10-06T08:17:43.544Z,62.71
2018-10-06T08:18:23.671Z,63.00
2018-10-06T08:19:04.026Z,62.29
2018-10-06T08:19:44.386Z,61.77
2018-10-06T08:20:24.640Z,62.21
2018-10-06T08:21:04.983Z,61.32
2018-10-06T08:21:45.388Z,61.61
2018-10-06T08:22:25.639Z,62.40
2018-10-06T08:23:06.147Z,62.41
2018-10-06T08:23:46.384Z,61.75
2018-10-06T08:24:26.634Z,62.38
2018-10-06T08:25:07.364Z,61.92
2018-10-06T08:25:47.505Z,61.78
2018-10-06T08:26:27.877Z,61.73
2018-10-06T08:27:08.046Z,62.21
2018-10-06T08:27:48.204Z,62.28
2018-10-06T08:28:28.425Z,62.65
2018-10-06T08:29:08.693Z,62.15
2018-10-06T08:29:49.058Z,61.68
2018-10-06T08:30:29.313Z,61.48
2018-10-06T08:31:10.012Z,62.01
2018-10-06T08:31:50.747Z,62.15
2018-10-06T08:32:30.914Z,61.63
2018-10-06T08:33:11.306Z,61.02
2018-10-06T08:33:51.619Z,60.72
2018-10-06T08:34:31.837Z,60.90
2018-10-06T08:35:12.194Z,60.80
2018-10-06T08:35:52.536Z,61.44
2018-10-06T08:36:32.904Z,60.73